createdAt,value
2019-03-28T00:01:11.390Z,3.33
2019-03-28T00:05:27.922Z,4.47
2019-03-28T00:09:45.138Z,3.53
2019-03-28T00:14:01.763Z,5.47
2019-03-28T00:18:18.587Z,4.40
2019-03-28T00:22:53.863Z,3.97
2019-03-28T00:27:10.371Z,5.07
2019-03-28T00:31:27.199Z,5.70
2019-03-28T00:35:43.657Z,6.00
2019-03-28T00:40:05.555Z,4.27
2019-03-28T00:44:22.091Z,5.97
2019-03-28T00:48:38.991Z,5.80
2019-03-28T00:52:55.551Z,6.60
2019-03-28T00:57:12.441Z,4.70
2019-03-28T01:01:28.957Z,4.27
2019-03-28T01:05:45.456Z,5.13
2019-03-28T01:10:02.396Z,8.20
2019-03-28T01:14:19.011Z,8.70
2019-03-28T01:18:35.889Z,8.70
2019-03-28T01:22:52.748Z,5.57
2019-03-28T01:27:09.265Z,9.33
2019-03-28T01:31:26.101Z,7.07
2019-03-28T01:35:42.588Z,9.43
2019-03-28T01:40:00.253Z,8.13
2019-03-28T01:44:17.353Z,9.53
2019-03-28T01:48:34.128Z,9.27
2019-03-28T01:52:50.733Z,9.50
2019-03-28T01:57:11.092Z,10.03
2019-03-28T02:01:25.719Z,8.70
2019-03-28T02:05:42.841Z,7.60
2019-03-28T02:10:00.306Z,7.30
2019-03-28T02:14:16.877Z,8.90
2019-03-28T02:18:33.439Z,8.97
2019-03-28T02:22:50.214Z,8.17
2019-03-28T02:27:06.715Z,11.20
2019-03-28T02:31:23.371Z,13.23
2019-03-28T02:35:39.845Z,12.57
2019-03-28T02:39:56.398Z,12.60
2019-03-28T02:44:13.202Z,15.63
2019-03-28T02:48:29.752Z,12.43
2019-03-28T02:52:46.355Z,13.57
2019-03-28T02:57:03.046Z,9.77
2019-03-28T03:01:19.571Z,16.70
2019-03-28T03:05:36.209Z,15.60
2019-03-28T03:09:53.015Z,18.30
2019-03-28T03:14:09.548Z,19.20
2019-03-28T03:18:26.356Z,18.57
2019-03-28T03:22:43.367Z,17.87
2019-03-28T03:26:59.917Z,15.03
2019-03-28T03:31:20.876Z,19.27
2019-03-28T03:35:35.156Z,19.13
2019-03-28T03:39:51.717Z,20.10
2019-03-28T03:44:08.255Z,16.43
2019-03-28T03:48:24.724Z,15.10
2019-03-28T03:52:41.662Z,16.47
2019-03-28T03:56:58.763Z,18.80
2019-03-28T04:01:15.521Z,19.80
2019-03-28T04:05:32.641Z,20.97
2019-03-28T04:09:49.157Z,18.80
2019-03-28T04:14:05.674Z,21.40
2019-03-28T04:18:22.518Z,16.87
2019-03-28T04:22:39.593Z,22.90
2019-03-28T04:26:56.256Z,19.77
2019-03-28T04:31:12.862Z,21.10
2019-03-28T04:35:29.391Z,20.63
2019-03-28T04:39:45.909Z,22.13
2019-03-28T04:44:02.603Z,19.33
2019-03-28T04:48:19.139Z,20.57
2019-03-28T04:52:35.636Z,22.87
2019-03-28T04:56:52.324Z,22.67
2019-03-28T05:01:08.863Z,21.83
2019-03-28T05:05:25.701Z,23.97
2019-03-28T05:09:42.220Z,23.87
2019-03-28T05:13:58.722Z,18.63
2019-03-28T05:18:15.249Z,21.37
2019-03-28T05:22:31.782Z,24.40
2019-03-28T05:26:48.267Z,20.37
2019-03-28T05:31:06.058Z,27.13
2019-03-28T05:35:22.554Z,24.87
2019-03-28T05:39:39.194Z,25.10
2019-03-28T05:43:55.990Z,26.10
2019-03-28T05:48:12.519Z,28.63
2019-03-28T05:52:29.255Z,27.10
2019-03-28T05:56:46.146Z,26.27
2019-03-28T06:01:02.774Z,39.83
2019-03-28T06:05:19.382Z,36.10
2019-03-28T06:09:35.886Z,29.20
2019-03-28T06:13:52.714Z,26.33
2019-03-28T06:18:09.645Z,24.90
2019-03-28T06:22:26.141Z,26.97
2019-03-28T06:26:43.079Z,28.93
2019-03-28T06:30:59.603Z,27.57
2019-03-28T06:35:16.232Z,26.60
2019-03-28T06:39:32.814Z,25.73
2019-03-28T06:43:49.367Z,26.50
2019-03-28T06:48:24.381Z,26.57
2019-03-28T06:52:40.909Z,25.40
2019-03-28T06:56:57.646Z,25.63
2019-03-28T07:01:14.423Z,25.33
2019-03-28T07:05:30.982Z,27.60
2019-03-28T07:09:47.734Z,25.97
2019-03-28T07:14:04.218Z,25.13
2019-03-28T07:18:20.716Z,25.30
2019-03-28T07:22:40.331Z,24.07
2019-03-28T07:26:56.952Z,23.87
2019-03-28T07:31:13.570Z,22.83
2019-03-28T07:35:30.375Z,22.20
2019-03-28T07:39:46.868Z,22.57
2019-03-28T07:44:03.508Z,21.83
2019-03-28T07:48:20.482Z,21.47
2019-03-28T07:52:37.258Z,21.77
2019-03-28T07:56:54.202Z,20.57
2019-03-28T08:01:10.704Z,19.03
2019-03-28T08:05:27.642Z,18.57
2019-03-28T08:09:44.188Z,17.00
2019-03-28T08:14:00.777Z,17.63
2019-03-28T08:18:17.315Z,16.83
2019-03-28T08:22:33.809Z,17.80
2019-03-28T08:26:50.402Z,16.60
2019-03-28T08:31:07.202Z,15.83
2019-03-28T08:35:24.180Z,14.33
2019-03-28T08:39:44.436Z,17.93
2019-03-28T08:44:00.164Z,14.20
2019-03-28T08:48:16.678Z,15.10
2019-03-28T08:52:33.300Z,15.10
2019-03-28T08:56:49.814Z,15.70
2019-03-28T09:01:07.246Z,14.77
2019-03-28T09:05:23.789Z,15.33
2019-03-28T09:09:40.396Z,13.70
2019-03-28T09:13:57.224Z,13.10
2019-03-28T09:18:13.775Z,13.13
2019-03-28T09:22:30.379Z,14.40
2019-03-28T09:26:46.872Z,13.33
2019-03-28T09:31:03.804Z,14.40
2019-03-28T09:35:29.570Z,13.93
2019-03-28T09:39:46.252Z,13.37
2019-03-28T09:44:03.183Z,14.13
2019-03-28T09:48:19.679Z,14.07
2019-03-28T09:52:36.204Z,16.33
2019-03-28T09:56:52.785Z,16.50
2019-03-28T10:01:09.833Z,15.20
2019-03-28T10:05:26.369Z,15.50
2019-03-28T10:09:43.126Z,15.93
2019-03-28T10:13:59.700Z,15.90
2019-03-28T10:18:16.731Z,15.80
2019-03-28T10:22:33.262Z,14.97
2019-03-28T10:26:49.774Z,15.53
2019-03-28T10:31:16.209Z,17.90
2019-03-28T10:35:25.954Z,15.20
2019-03-28T10:39:42.478Z,19.30
2019-03-28T10:43:59.014Z,19.37
2019-03-28T10:48:15.511Z,19.20
2019-03-28T10:52:32.043Z,18.13
2019-03-28T10:56:52.014Z,19.80
2019-03-28T11:01:07.407Z,19.67
2019-03-28T11:05:23.942Z,20.57
2019-03-28T11:09:40.853Z,18.90
2019-03-28T11:13:57.670Z,17.90
2019-03-28T11:18:14.196Z,20.47
2019-03-28T11:22:30.852Z,20.20
2019-03-28T11:26:47.328Z,16.77
2019-03-28T11:31:03.998Z,17.03
2019-03-28T11:35:20.582Z,16.97
2019-03-28T11:39:37.084Z,19.07
2019-03-28T11:43:53.725Z,17.57
2019-03-28T11:48:10.207Z,18.40
2019-03-28T11:52:27.151Z,17.80
2019-03-28T11:56:43.953Z,16.43
2019-03-28T12:01:00.896Z,18.63
2019-03-28T12:05:17.505Z,19.63
2019-03-28T12:09:34.031Z,20.90
2019-03-28T12:13:50.525Z,20.00
2019-03-28T12:18:07.050Z,17.60
2019-03-28T12:22:23.559Z,18.83
2019-03-28T12:26:40.085Z,18.67
2019-03-28T12:30:56.615Z,18.03
2019-03-28T12:35:13.323Z,19.07
2019-03-28T12:39:29.863Z,21.00
2019-03-28T12:43:46.366Z,19.40
2019-03-28T12:48:03.890Z,13.33
2019-03-28T12:52:20.425Z,16.30
2019-03-28T12:56:37.245Z,17.30
2019-03-28T13:00:54.060Z,19.20
2019-03-28T13:05:11.002Z,19.90
2019-03-28T13:09:28.244Z,18.10
2019-03-28T13:13:45.266Z,20.00
2019-03-28T13:18:01.861Z,15.33
2019-03-28T13:22:18.389Z,19.30
2019-03-28T13:26:34.977Z,20.43
2019-03-28T13:30:51.809Z,19.33
2019-03-28T13:35:09.506Z,18.20
2019-03-28T13:39:25.938Z,19.93
2019-03-28T13:43:42.462Z,19.23
2019-03-28T13:47:59.100Z,19.87
2019-03-28T13:52:15.615Z,19.60
2019-03-28T13:56:32.386Z,16.87
2019-03-28T14:00:48.954Z,15.60
2019-03-28T14:05:06.660Z,16.50
2019-03-28T14:09:23.593Z,14.97
2019-03-28T14:13:40.335Z,18.97
2019-03-28T14:17:57.206Z,15.30
2019-03-28T14:22:14.047Z,16.47
2019-03-28T14:26:39.088Z,16.60
2019-03-28T14:30:55.588Z,15.93
2019-03-28T14:35:12.405Z,20.40
2019-03-28T14:39:28.846Z,15.67
2019-03-28T14:43:45.368Z,15.77
2019-03-28T14:48:01.896Z,12.63
2019-03-28T14:52:18.655Z,18.00
2019-03-28T14:56:35.708Z,12.37
2019-03-28T15:00:53.272Z,16.80
2019-03-28T15:05:09.977Z,14.27
2019-03-28T15:09:26.819Z,16.73
2019-03-28T15:13:43.331Z,16.60
2019-03-28T15:17:59.811Z,13.53
2019-03-28T15:22:16.517Z,15.90
2019-03-28T15:26:32.961Z,13.83
2019-03-28T15:30:49.920Z,15.13
2019-03-28T15:35:06.640Z,17.57
2019-03-28T15:39:23.118Z,13.97
2019-03-28T15:43:39.660Z,14.20
2019-03-28T15:47:56.577Z,16.50
2019-03-28T15:52:13.106Z,17.83
2019-03-28T15:56:29.630Z,15.37
2019-03-28T16:00:46.253Z,19.37
2019-03-28T16:05:04.723Z,15.13
2019-03-28T16:09:21.232Z,18.37
2019-03-28T16:13:37.843Z,15.83
2019-03-28T16:17:57.587Z,16.03
2019-03-28T16:22:15.533Z,19.67
2019-03-28T16:26:31.882Z,20.70
2019-03-28T16:30:49.822Z,16.07
2019-03-28T16:35:07.290Z,18.10
2019-03-28T16:39:24.105Z,17.93
2019-03-28T16:43:40.758Z,14.40
2019-03-28T16:47:57.257Z,18.40
2019-03-28T16:52:13.979Z,18.93
2019-03-28T16:56:30.698Z,16.73
2019-03-28T17:00:47.510Z,18.20
2019-03-28T17:05:05.646Z,16.30
2019-03-28T17:09:23.317Z,17.60
2019-03-28T17:13:39.944Z,14.97
2019-03-28T17:17:56.458Z,19.27
2019-03-28T17:22:13.862Z,16.83
2019-03-28T17:26:30.707Z,16.77
2019-03-28T17:30:48.262Z,15.73
2019-03-28T17:35:05.018Z,13.97
2019-03-28T17:39:21.594Z,16.23
2019-03-28T17:43:38.271Z,17.03
2019-03-28T17:47:54.924Z,10.37
2019-03-28T17:52:11.425Z,16.47
2019-03-28T17:56:28.241Z,15.87
2019-03-28T18:00:46.562Z,15.43
2019-03-28T18:05:09.590Z,15.20
2019-03-28T18:09:23.965Z,14.90
2019-03-28T18:13:41.532Z,11.07
2019-03-28T18:17:58.194Z,15.03
2019-03-28T18:22:14.706Z,15.27
2019-03-28T18:26:31.605Z,15.27
2019-03-28T18:30:48.258Z,18.77
2019-03-28T18:35:07.073Z,12.23
2019-03-28T18:39:23.941Z,12.90
2019-03-28T18:43:41.779Z,13.47
2019-03-28T18:47:58.427Z,14.13
2019-03-28T18:52:15.049Z,10.53
2019-03-28T18:56:31.843Z,13.80
2019-03-28T19:00:48.610Z,10.37
2019-03-28T19:05:18.770Z,8.90
2019-03-28T19:09:24.287Z,13.43
2019-03-28T19:13:40.873Z,9.03
2019-03-28T19:17:57.558Z,8.40
2019-03-28T19:22:14.343Z,9.07
2019-03-28T19:26:32.170Z,11.47
2019-03-28T19:30:52.110Z,9.67
2019-03-28T19:35:09.283Z,9.40
2019-03-28T19:39:31.878Z,6.27
2019-03-28T19:43:49.901Z,9.30
2019-03-28T19:48:07.775Z,9.03
2019-03-28T19:52:24.281Z,5.60
2019-03-28T19:56:40.783Z,9.10
2019-03-28T20:00:57.670Z,7.87
2019-03-28T20:05:15.275Z,6.43
2019-03-28T20:09:31.956Z,13.33
2019-03-28T20:13:48.533Z,10.90
2019-03-28T20:18:06.454Z,9.33
2019-03-28T20:22:23.045Z,10.20
2019-03-28T20:26:40.635Z,19.23
2019-03-28T20:30:57.332Z,9.37
2019-03-28T20:35:14.151Z,6.03
2019-03-28T20:39:30.897Z,4.63
2019-03-28T20:43:47.464Z,6.57
2019-03-28T20:48:04.082Z,3.97
2019-03-28T20:52:20.693Z,3.70
2019-03-28T20:56:37.529Z,5.10
2019-03-28T21:00:54.038Z,5.13
2019-03-28T21:05:11.172Z,4.63
2019-03-28T21:09:28.761Z,4.70
2019-03-28T21:13:45.319Z,4.53
2019-03-28T21:18:02.050Z,3.53
2019-03-28T21:22:18.893Z,5.30
2019-03-28T21:26:35.813Z,5.47
2019-03-28T21:30:52.290Z,4.53
2019-03-28T21:35:09.022Z,3.63
2019-03-28T21:39:25.549Z,6.73
2019-03-28T21:43:42.040Z,10.40
2019-03-28T21:47:58.574Z,8.20
2019-03-28T21:52:15.118Z,7.17
2019-03-28T21:56:31.732Z,6.63
2019-03-28T22:00:48.242Z,11.63
2019-03-28T22:05:06.447Z,10.03
2019-03-28T22:09:23.004Z,7.57
2019-03-28T22:13:39.471Z,5.83
2019-03-28T22:17:56.036Z,5.30
2019-03-28T22:22:12.830Z,4.07
2019-03-28T22:26:29.654Z,4.00
2019-03-28T22:30:46.180Z,3.07
2019-03-28T22:35:07.152Z,3.50
2019-03-28T22:39:23.592Z,3.80
2019-03-28T22:43:40.286Z,5.57
2019-03-28T22:48:09.785Z,8.23
2019-03-28T22:52:15.211Z,11.20
2019-03-28T22:56:31.855Z,9.90
2019-03-28T23:00:51.840Z,10.80
2019-03-28T23:05:09.485Z,5.83
2019-03-28T23:09:26.270Z,3.87
2019-03-28T23:13:42.694Z,6.43
2019-03-28T23:18:00.515Z,7.07
2019-03-28T23:22:17.351Z,9.93
2019-03-28T23:26:34.840Z,6.20
2019-03-28T23:30:51.522Z,6.40
2019-03-28T23:35:08.546Z,5.13
2019-03-28T23:39:25.043Z,5.37
2019-03-28T23:43:41.587Z,5.27
2019-03-28T23:47:58.075Z,6.30
2019-03-28T23:52:14.612Z,4.77
2019-03-28T23:56:31.153Z,3.93
